createdAt,value
2022-12-29T00:01:54.592Z,7.20
2022-12-29T00:04:58.331Z,6.97
2022-12-29T00:08:01.565Z,9.23
2022-12-29T00:11:05.297Z,7.03
2022-12-29T00:14:29.434Z,7.72
2022-12-29T00:17:33.022Z,8.25
2022-12-29T00:20:56.040Z,10.73
2022-12-29T00:24:28.550Z,5.90
2022-12-29T00:27:51.318Z,10.43
2022-12-29T00:31:14.021Z,10.18
2022-12-29T00:34:35.777Z,5.10
2022-12-29T00:38:00.885Z,9.75
2022-12-29T00:41:23.015Z,9.23
2022-12-29T00:44:26.914Z,10.97
2022-12-29T00:47:30.443Z,9.40
2022-12-29T00:50:34.342Z,10.05
2022-12-29T00:53:37.533Z,12.27
2022-12-29T00:56:41.363Z,9.73
2022-12-29T00:59:44.854Z,8.63
2022-12-29T01:02:48.670Z,8.10
2022-12-29T01:05:53.510Z,7.37
2022-12-29T01:09:16.002Z,8.73
2022-12-29T01:12:39.639Z,7.45
2022-12-29T01:15:51.562Z,11.63
2022-12-29T01:18:54.930Z,10.07
2022-12-29T01:21:58.606Z,8.00
2022-12-29T01:25:01.817Z,10.85
2022-12-29T01:28:05.426Z,10.02
2022-12-29T01:31:14.357Z,12.03
2022-12-29T01:34:18.544Z,10.40
2022-12-29T01:37:21.958Z,10.38
2022-12-29T01:40:26.463Z,7.93
2022-12-29T01:43:48.915Z,8.18
2022-12-29T01:46:53.429Z,5.80
2022-12-29T01:50:00.353Z,7.22
2022-12-29T01:53:11.167Z,8.80
2022-12-29T01:56:18.041Z,8.13
2022-12-29T01:59:26.354Z,8.90
2022-12-29T02:02:33.154Z,11.05
2022-12-29T02:05:52.104Z,13.95
2022-12-29T02:08:57.701Z,10.88
2022-12-29T02:12:02.431Z,11.82
2022-12-29T02:15:06.731Z,11.67
2022-12-29T02:18:34.943Z,12.33
2022-12-29T02:22:10.086Z,12.52
2022-12-29T02:25:53.204Z,9.15
2022-12-29T02:29:21.304Z,9.70
2022-12-29T02:32:45.519Z,11.03
2022-12-29T02:36:16.173Z,11.70
2022-12-29T02:39:28.452Z,9.88
2022-12-29T02:42:56.038Z,10.18
2022-12-29T02:46:30.563Z,7.57
2022-12-29T02:49:49.919Z,9.93
2022-12-29T02:53:01.579Z,6.73
2022-12-29T02:56:05.370Z,8.40
2022-12-29T02:59:09.810Z,9.43
2022-12-29T03:02:46.123Z,8.15
2022-12-29T03:06:32.288Z,8.07
2022-12-29T03:10:01.531Z,8.37
2022-12-29T03:13:36.681Z,11.60
2022-12-29T03:16:57.259Z,10.80
2022-12-29T03:20:07.544Z,9.50
2022-12-29T03:23:13.128Z,12.03
2022-12-29T03:26:20.215Z,11.00
2022-12-29T03:29:25.110Z,7.70
2022-12-29T03:33:01.417Z,14.18
2022-12-29T03:36:12.110Z,9.98
2022-12-29T03:39:15.612Z,10.97
2022-12-29T03:42:25.139Z,13.47
2022-12-29T03:45:28.486Z,11.88
2022-12-29T03:49:35.541Z,13.70
2022-12-29T03:52:40.198Z,14.05
2022-12-29T03:55:43.477Z,14.03
2022-12-29T03:58:46.978Z,9.83
2022-12-29T04:01:50.666Z,10.05
2022-12-29T04:04:54.131Z,11.20
2022-12-29T04:07:57.118Z,9.57
2022-12-29T04:11:00.508Z,14.10
2022-12-29T04:14:03.526Z,12.23
2022-12-29T04:17:07.420Z,11.07
2022-12-29T04:20:46.381Z,11.15
2022-12-29T04:23:50.027Z,9.77
2022-12-29T04:26:53.319Z,9.43
2022-12-29T04:29:57.451Z,13.73
2022-12-29T04:33:00.676Z,12.27
2022-12-29T04:36:04.900Z,16.17
2022-12-29T04:39:08.631Z,12.35
2022-12-29T04:42:12.222Z,15.57
2022-12-29T04:45:16.039Z,17.40
2022-12-29T04:48:19.534Z,11.43
2022-12-29T04:51:22.547Z,16.62
2022-12-29T04:54:26.308Z,15.70
2022-12-29T04:57:31.056Z,14.93
2022-12-29T05:00:35.574Z,17.53
2022-12-29T05:03:38.734Z,20.00
2022-12-29T05:06:42.148Z,14.87
2022-12-29T05:09:45.552Z,12.82
2022-12-29T05:12:49.313Z,16.70
2022-12-29T05:15:54.228Z,13.35
2022-12-29T05:18:58.236Z,11.70
2022-12-29T05:22:01.527Z,8.02
2022-12-29T05:25:06.296Z,10.52
2022-12-29T05:28:10.299Z,7.63
2022-12-29T05:31:14.436Z,16.17
2022-12-29T05:34:17.619Z,17.42
2022-12-29T05:37:22.001Z,13.60
2022-12-29T05:40:25.387Z,12.50
2022-12-29T05:43:30.683Z,13.97
2022-12-29T05:46:35.014Z,11.93
2022-12-29T05:49:38.754Z,20.52
2022-12-29T05:52:41.995Z,14.80
2022-12-29T05:55:48.727Z,13.48
2022-12-29T05:58:52.397Z,16.13
2022-12-29T06:01:55.752Z,12.77
2022-12-29T06:04:59.266Z,16.92
2022-12-29T06:08:02.447Z,10.50
2022-12-29T06:11:06.944Z,11.93
2022-12-29T06:14:10.543Z,11.87
2022-12-29T06:17:14.280Z,6.53
2022-12-29T06:20:17.424Z,14.87
2022-12-29T06:23:21.048Z,10.57
2022-12-29T06:26:24.361Z,15.98
2022-12-29T06:29:27.817Z,10.67
2022-12-29T06:32:31.947Z,12.90
2022-12-29T06:35:36.918Z,10.80
2022-12-29T06:38:40.491Z,11.40
2022-12-29T06:41:44.286Z,18.85
2022-12-29T06:44:48.029Z,11.40
2022-12-29T06:47:51.397Z,18.70
2022-12-29T06:50:54.559Z,18.45
2022-12-29T06:53:58.277Z,23.58
2022-12-29T06:57:01.484Z,18.17
2022-12-29T07:00:06.364Z,23.50
2022-12-29T07:03:10.251Z,10.83
2022-12-29T07:06:14.474Z,15.65
2022-12-29T07:09:17.697Z,23.48
2022-12-29T07:12:21.000Z,15.35
2022-12-29T07:15:24.281Z,21.53
2022-12-29T07:18:27.603Z,17.70
2022-12-29T07:21:30.694Z,22.60
2022-12-29T07:24:34.261Z,11.48
2022-12-29T07:27:37.249Z,12.43
2022-12-29T07:30:40.835Z,21.40
2022-12-29T07:33:44.745Z,22.77
2022-12-29T07:36:48.212Z,18.60
2022-12-29T07:39:51.028Z,21.92
2022-12-29T07:42:54.286Z,15.73
2022-12-29T07:46:02.363Z,20.80
2022-12-29T07:49:05.645Z,14.63
2022-12-29T07:52:08.617Z,19.37
2022-12-29T07:55:12.051Z,12.88
2022-12-29T07:58:15.500Z,23.15
2022-12-29T08:01:19.334Z,22.33
2022-12-29T08:04:22.920Z,18.93
2022-12-29T08:07:27.071Z,21.73
2022-12-29T08:10:30.441Z,24.25
2022-12-29T08:13:33.975Z,12.95
2022-12-29T08:16:37.527Z,16.33
2022-12-29T08:19:40.450Z,16.70
2022-12-29T08:22:43.681Z,16.80
2022-12-29T08:33:22.445Z,14.97
2022-12-29T08:36:25.513Z,20.70
2022-12-29T08:39:28.925Z,14.70
2022-12-29T08:42:33.334Z,20.92
2022-12-29T08:45:36.604Z,13.57
2022-12-29T08:48:40.062Z,14.27
2022-12-29T08:51:43.360Z,24.23
2022-12-29T08:54:46.684Z,14.93
2022-12-29T08:57:50.512Z,13.38
2022-12-29T09:00:58.522Z,15.05
2022-12-29T09:04:15.057Z,13.57
2022-12-29T09:07:19.843Z,18.77
2022-12-29T09:10:23.014Z,19.52
2022-12-29T09:13:26.325Z,19.67
2022-12-29T09:16:29.665Z,10.70
2022-12-29T09:19:33.318Z,16.07
2022-12-29T09:22:37.736Z,15.00
2022-12-29T09:25:41.092Z,19.25
2022-12-29T09:28:45.640Z,17.00
2022-12-29T09:31:49.187Z,14.77
2022-12-29T09:34:52.312Z,12.27
2022-12-29T09:37:55.809Z,20.83
2022-12-29T09:41:12.135Z,20.05
2022-12-29T09:44:15.509Z,17.40
2022-12-29T09:47:21.871Z,16.75
2022-12-29T09:50:31.228Z,16.40
2022-12-29T09:53:45.917Z,9.80
2022-12-29T09:56:51.138Z,14.95
2022-12-29T10:00:06.158Z,22.83
2022-12-29T10:03:17.011Z,11.93
2022-12-29T10:06:28.405Z,16.00
2022-12-29T10:09:43.841Z,18.87
2022-12-29T10:13:23.120Z,19.98
2022-12-29T10:16:39.737Z,14.68
2022-12-29T10:20:13.619Z,16.67
2022-12-29T10:23:29.989Z,20.43
2022-12-29T10:26:40.925Z,13.83
2022-12-29T10:29:54.613Z,15.82
2022-12-29T10:33:05.808Z,15.05
2022-12-29T10:36:22.894Z,13.60
2022-12-29T10:39:38.369Z,13.63
2022-12-29T10:42:46.564Z,18.10
2022-12-29T10:45:50.390Z,17.77
2022-12-29T10:48:54.317Z,20.48
2022-12-29T10:52:01.634Z,16.00
2022-12-29T10:55:07.218Z,12.50
2022-12-29T10:58:14.827Z,16.83
2022-12-29T11:01:19.720Z,23.00
2022-12-29T11:05:00.599Z,20.37
2022-12-29T11:08:10.057Z,19.15
2022-12-29T11:11:13.557Z,18.53
2022-12-29T11:14:22.582Z,15.43
2022-12-29T11:17:25.762Z,17.73
2022-12-29T11:20:36.124Z,19.77
2022-12-29T11:23:43.214Z,19.07
2022-12-29T11:26:46.411Z,24.23
2022-12-29T11:29:54.901Z,19.90
2022-12-29T11:32:59.499Z,11.90
2022-12-29T11:36:16.667Z,11.68
2022-12-29T11:39:40.746Z,13.73
2022-12-29T11:42:57.430Z,23.17
2022-12-29T11:46:04.985Z,18.50
2022-12-29T11:49:20.275Z,18.30
2022-12-29T11:52:26.185Z,19.12
2022-12-29T11:55:30.896Z,15.30
2022-12-29T11:58:37.829Z,17.93
2022-12-29T12:01:43.081Z,16.42
2022-12-29T12:04:46.945Z,17.70
2022-12-29T12:08:03.381Z,12.63
2022-12-29T12:11:29.764Z,17.67
2022-12-29T12:14:48.009Z,14.80
2022-12-29T12:18:01.694Z,16.75
2022-12-29T12:21:16.700Z,17.83
2022-12-29T12:24:37.647Z,16.45
2022-12-29T12:27:50.476Z,16.90
2022-12-29T12:30:59.224Z,16.20
2022-12-29T12:34:07.606Z,19.98
2022-12-29T12:37:49.584Z,18.75
2022-12-29T12:41:21.359Z,18.50
2022-12-29T12:44:39.429Z,16.70
2022-12-29T12:48:02.527Z,12.53
2022-12-29T12:51:28.625Z,24.70
2022-12-29T12:54:52.496Z,16.77
2022-12-29T12:58:09.409Z,19.62
2022-12-29T13:01:15.807Z,17.23
2022-12-29T13:04:48.051Z,15.93
2022-12-29T13:08:04.126Z,19.45
2022-12-29T13:11:15.781Z,18.70
2022-12-29T13:14:40.529Z,20.00
2022-12-29T13:18:01.824Z,16.87
2022-12-29T13:21:18.838Z,19.83
2022-12-29T13:24:25.327Z,16.60
2022-12-29T13:27:55.075Z,21.08
2022-12-29T13:31:35.923Z,22.60
2022-12-29T13:34:45.407Z,19.07
2022-12-29T13:37:55.831Z,19.00
2022-12-29T13:41:05.089Z,22.48
2022-12-29T13:44:16.275Z,21.60
2022-12-29T13:47:39.531Z,23.87
2022-12-29T13:50:46.710Z,24.50
2022-12-29T13:53:58.538Z,24.07
2022-12-29T13:57:25.809Z,24.08
2022-12-29T14:00:39.567Z,30.37
2022-12-29T14:03:50.689Z,32.63
2022-12-29T14:07:14.584Z,28.40
2022-12-29T14:10:37.673Z,38.43
2022-12-29T14:13:44.237Z,32.88
2022-12-29T14:16:47.530Z,45.80
2022-12-29T14:19:55.294Z,25.37
2022-12-29T14:23:21.540Z,27.37
2022-12-29T14:26:44.566Z,26.40
2022-12-29T14:29:52.112Z,29.67
2022-12-29T14:33:15.782Z,25.25
2022-12-29T14:36:22.179Z,26.92
2022-12-29T14:39:36.273Z,25.97
2022-12-29T14:42:41.602Z,26.03
2022-12-29T14:45:49.822Z,27.80
2022-12-29T14:49:00.052Z,35.78
2022-12-29T14:52:18.902Z,48.47
2022-12-29T14:55:53.516Z,44.07
2022-12-29T14:58:58.803Z,37.23
2022-12-29T15:02:14.059Z,37.30
2022-12-29T15:05:54.326Z,41.17
2022-12-29T15:09:07.663Z,30.42
2022-12-29T15:12:42.780Z,36.03
2022-12-29T15:15:46.875Z,41.67
2022-12-29T15:18:50.094Z,48.40
2022-12-29T15:21:55.737Z,39.78
2022-12-29T15:24:59.459Z,35.30
2022-12-29T15:28:05.701Z,38.20
2022-12-29T15:31:17.515Z,43.17
2022-12-29T15:34:22.576Z,51.03
2022-12-29T15:37:34.852Z,44.22
2022-12-29T15:40:38.176Z,47.35
2022-12-29T15:44:16.344Z,44.60
2022-12-29T15:47:24.465Z,57.70
2022-12-29T15:50:32.591Z,77.68
2022-12-29T15:53:35.813Z,87.10
2022-12-29T15:56:38.692Z,96.85
2022-12-29T15:59:48.377Z,129.30
2022-12-29T16:02:51.438Z,115.10
2022-12-29T16:05:57.614Z,254.60
2022-12-29T16:09:04.269Z,93.32
2022-12-29T16:12:17.930Z,55.25
2022-12-29T16:15:21.236Z,97.33
2022-12-29T16:18:38.716Z,158.83
2022-12-29T16:21:43.296Z,138.62
2022-12-29T16:24:47.070Z,100.00
2022-12-29T16:27:50.628Z,91.68
2022-12-29T16:31:08.247Z,132.00
2022-12-29T16:34:25.584Z,92.30
2022-12-29T16:37:30.743Z,77.45
2022-12-29T16:40:34.135Z,85.50
2022-12-29T16:43:43.138Z,92.97
2022-12-29T16:47:12.372Z,70.43
2022-12-29T16:50:28.279Z,67.70
2022-12-29T16:53:48.522Z,73.37
2022-12-29T16:56:53.286Z,66.78
2022-12-29T17:00:02.464Z,61.92
2022-12-29T17:03:09.025Z,69.67
2022-12-29T17:06:20.998Z,69.37
2022-12-29T17:09:31.633Z,69.25
2022-12-29T17:12:38.615Z,83.65
2022-12-29T17:15:45.019Z,67.75
2022-12-29T17:18:50.550Z,81.17
2022-12-29T17:21:54.900Z,81.87
2022-12-29T17:25:00.838Z,79.50
2022-12-29T17:28:23.915Z,80.00
2022-12-29T17:31:26.937Z,78.35
2022-12-29T17:34:31.191Z,79.13
2022-12-29T17:37:37.274Z,78.70
2022-12-29T17:40:40.574Z,78.97
2022-12-29T17:43:43.771Z,83.60
2022-12-29T17:46:49.296Z,80.87
2022-12-29T17:49:52.283Z,82.03
2022-12-29T17:53:01.192Z,78.45
2022-12-29T17:56:04.392Z,77.87
2022-12-29T17:59:14.361Z,85.00
2022-12-29T18:02:26.916Z,73.50
2022-12-29T18:05:31.758Z,82.00
2022-12-29T18:08:39.191Z,84.30
2022-12-29T18:11:44.152Z,87.18
2022-12-29T18:14:47.041Z,98.87
2022-12-29T18:17:55.198Z,97.50
2022-12-29T18:21:00.781Z,107.27
2022-12-29T18:24:04.285Z,107.93
2022-12-29T18:27:17.977Z,119.82
2022-12-29T18:30:21.561Z,131.18
2022-12-29T18:33:26.668Z,134.15
2022-12-29T18:36:30.603Z,134.77
2022-12-29T18:39:34.208Z,135.98
2022-12-29T18:42:37.692Z,114.28
2022-12-29T18:45:40.840Z,117.90
2022-12-29T18:48:44.345Z,111.68
2022-12-29T18:51:48.204Z,114.90
2022-12-29T18:54:51.377Z,123.45
2022-12-29T18:57:54.679Z,105.28
2022-12-29T19:00:58.000Z,95.32
2022-12-29T19:04:01.107Z,103.30
2022-12-29T19:07:04.779Z,99.30
2022-12-29T19:10:08.173Z,93.80
2022-12-29T19:13:20.908Z,94.80
2022-12-29T19:16:25.413Z,86.32
2022-12-29T19:19:29.190Z,77.80
2022-12-29T19:22:32.149Z,84.83
2022-12-29T19:25:35.853Z,85.10
2022-12-29T19:28:38.871Z,71.85
2022-12-29T19:31:42.808Z,79.90
2022-12-29T19:34:48.992Z,71.25
2022-12-29T19:37:52.908Z,67.73
2022-12-29T19:40:55.871Z,65.18
2022-12-29T19:43:59.345Z,78.60
2022-12-29T19:47:02.349Z,88.47
2022-12-29T19:50:07.152Z,85.47
2022-12-29T19:53:11.138Z,84.97
2022-12-29T19:56:17.222Z,87.32
2022-12-29T19:59:20.319Z,73.87
2022-12-29T20:02:26.959Z,74.90
2022-12-29T20:05:30.707Z,71.90
2022-12-29T20:08:35.356Z,79.53
2022-12-29T20:11:38.817Z,112.62
2022-12-29T20:14:43.271Z,96.07
2022-12-29T20:18:12.403Z,88.97
2022-12-29T20:21:15.012Z,105.97
2022-12-29T20:24:18.649Z,95.38
2022-12-29T20:27:21.545Z,98.90
2022-12-29T20:30:25.312Z,79.78
2022-12-29T20:33:29.761Z,71.90
2022-12-29T20:36:35.901Z,67.43
2022-12-29T20:39:40.766Z,67.35
2022-12-29T20:42:44.006Z,74.90
2022-12-29T20:45:47.167Z,75.28
2022-12-29T20:48:51.167Z,67.93
2022-12-29T20:52:09.893Z,63.58
2022-12-29T20:55:13.188Z,70.03
2022-12-29T20:58:24.395Z,71.18
2022-12-29T21:01:28.367Z,80.20
2022-12-29T21:04:50.253Z,69.40
2022-12-29T21:07:55.503Z,74.90
2022-12-29T21:10:59.032Z,75.18
2022-12-29T21:14:04.019Z,69.25
2022-12-29T21:17:07.347Z,64.82
2022-12-29T21:20:20.351Z,64.35
2022-12-29T21:23:23.375Z,57.08
2022-12-29T21:26:26.514Z,60.45
2022-12-29T21:29:29.625Z,74.47
2022-12-29T21:32:32.953Z,76.78
2022-12-29T21:35:39.156Z,62.80
2022-12-29T21:38:42.769Z,67.93
2022-12-29T21:41:45.957Z,56.78
2022-12-29T21:45:07.806Z,58.50
2022-12-29T21:48:24.387Z,65.68
2022-12-29T21:51:46.458Z,55.37
2022-12-29T21:55:01.010Z,60.55
2022-12-29T21:58:24.474Z,57.62
2022-12-29T22:01:48.248Z,59.28
2022-12-29T22:05:10.215Z,63.03
2022-12-29T22:08:31.905Z,55.57
2022-12-29T22:11:53.631Z,52.60
2022-12-29T22:14:56.609Z,51.28
2022-12-29T22:18:01.408Z,50.70
2022-12-29T22:21:06.617Z,49.30
2022-12-29T22:24:10.317Z,56.92
2022-12-29T22:27:13.455Z,55.88
2022-12-29T22:30:17.578Z,52.50
2022-12-29T22:33:20.493Z,53.03
2022-12-29T22:36:24.837Z,55.05
2022-12-29T22:39:27.696Z,53.75
2022-12-29T22:42:30.991Z,54.30
2022-12-29T22:45:34.050Z,51.07
2022-12-29T22:48:37.720Z,61.20
2022-12-29T22:51:40.571Z,62.80
2022-12-29T22:54:43.838Z,59.85
2022-12-29T22:57:46.720Z,63.42
2022-12-29T23:00:49.777Z,61.10
2022-12-29T23:03:52.769Z,61.90
2022-12-29T23:06:55.928Z,58.00
2022-12-29T23:09:58.853Z,57.58
2022-12-29T23:13:04.477Z,57.53
2022-12-29T23:16:07.474Z,55.92
2022-12-29T23:19:11.992Z,55.38
2022-12-29T23:22:15.143Z,67.87
2022-12-29T23:25:18.177Z,70.22
2022-12-29T23:28:20.968Z,63.45
2022-12-29T23:31:25.545Z,68.97
2022-12-29T23:34:28.316Z,64.95
2022-12-29T23:37:32.063Z,65.40
2022-12-29T23:40:35.099Z,73.05
2022-12-29T23:43:38.698Z,63.90
2022-12-29T23:46:41.633Z,56.45
2022-12-29T23:49:44.606Z,55.43
2022-12-29T23:52:47.769Z,60.95
2022-12-29T23:55:55.095Z,58.87
2022-12-29T23:58:58.054Z,56.22
